Upper Brookville, New York
Current Conditions -  °F | °C
As of 5:53 AM on Friday 24 Oct 2014 (Local Time) from KFRG Reporting Station
Overcast Overcast  
Wind Chill: 51°   Ceiling: 4500
Heat Index: 51°   Visibility: 10mi
Dew Point: 45°   Wind: 7mph
Humidity: 80%   Direction: 330°NNW
Pressure: 29.78"   Gusts: NA
Location:  40.8471°N, 73.5334°W
Report Text: KFRG 240953Z AUTO 33006KT 10SM OVC045 11/07 A2978 RMK AO2 SLP085 T01060072
Loading
Personal Weather Stations






























Interactive Weather Map
Tropical Storm Tracking
New forecast layout! Learn more

10-Day Weather Forecast

Advertisements
Track Severe Weather on mobile